Time;durP1;ratioP1;P1;durP2;ratioP2;P2;SDS_P1;SDS_P2;PMS_P1;PMS_P2;Temp;Humidity;BMP_temperature;BMP_pressure;BME280_temperature;BME280_humidity;BME280_pressure;Samples;Min_cycle;Max_cycle;Signal;HPM_P1;HPM_P2
2022/09/17 00:03:22;;;;;;;;;;;9.80;99.90;;;8.58;100.00;95182.25;10438443;28;2610;-72
2022/09/17 00:08:24;;;;;;;;;;;9.80;99.90;;;8.59;100.00;95179.31;10438234;28;2632;-73
2022/09/17 00:13:27;;;;;;;;;;;9.80;99.90;;;8.69;100.00;95183.81;10421507;28;2536;-73
2022/09/17 00:18:30;;;;;;;;;;;9.80;99.90;;;8.81;100.00;95170.06;10438244;28;3049;-72
2022/09/17 00:23:36;;;;;;;;;;;9.90;99.90;;;8.84;100.00;95174.88;10443432;28;2668;-73
2022/09/17 00:28:40;;;;;;;;;;;9.90;99.90;;;8.87;100.00;95164.41;10444876;28;2560;-72
2022/09/17 00:33:43;;;;;;;;;;;9.90;99.90;;;8.91;100.00;95167.34;10447577;28;2640;-72
2022/09/17 00:38:46;;;;;;;;;;;10.00;99.90;;;8.92;100.00;95177.78;10448288;28;2636;-73
2022/09/17 00:43:49;;;;;;;;;;;9.90;99.90;;;8.89;100.00;95177.53;10443631;28;2663;-72
2022/09/17 00:48:52;;;;;;;;;;;9.90;99.90;;;8.94;100.00;95185.53;10449382;28;2560;-72
2022/09/17 00:53:55;;;;;;;;;;;9.90;99.90;;;8.92;100.00;95187.72;10446527;28;2565;-74
2022/09/17 00:58:58;;;;;;;;;;;10.00;99.90;;;8.89;100.00;95193.59;10450831;28;2625;-78
2022/09/17 01:04:01;;;;;;;;;;;9.90;99.90;;;8.87;100.00;95185.06;10443058;28;2759;-76
2022/09/17 01:09:04;;;;;;;;;;;9.90;99.90;;;8.71;100.00;95183.53;10447616;28;2616;-72
2022/09/17 01:14:06;;;;;;;;;;;9.90;99.90;;;8.68;100.00;95192.91;10443364;28;2636;-73
2022/09/17 01:19:09;;;;;;;;;;;9.70;99.90;;;8.75;100.00;95193.41;10444113;28;2596;-72
2022/09/17 01:24:13;;;;;;;;;;;9.80;99.90;;;8.80;100.00;95189.91;10445602;28;2619;-72
2022/09/17 01:29:16;;;;;;;;;;;9.80;99.90;;;8.83;100.00;95190.16;10443226;28;2682;-71
2022/09/17 01:34:19;;;;;;;;;;;9.80;99.90;;;8.75;100.00;95181.91;10444141;28;2671;-71
2022/09/17 01:39:21;;;;;;;;;;;9.90;99.90;;;8.77;100.00;95185.09;10443464;28;2561;-72
2022/09/17 01:44:24;;;;;;;;;;;9.80;99.90;;;8.77;100.00;95185.09;10444770;28;2659;-71
2022/09/17 01:49:32;;;;;;;;;;;9.70;99.90;;;8.79;100.00;95189.13;10444062;28;2593;-71
2022/09/17 01:54:35;;;;;;;;;;;9.70;99.90;;;8.81;100.00;95181.59;10444930;28;3017;-71
2022/09/17 01:59:43;;;;;;;;;;;9.80;99.90;;;8.83;100.00;95178.63;10439584;28;2699;-71
2022/09/17 02:04:46;;;;;;;;;;;9.80;99.90;;;8.79;100.00;95174.94;10441630;28;2581;-71
2022/09/17 02:09:49;;;;;;;;;;;9.80;99.90;;;8.75;100.00;95180.03;10426578;28;2714;-71
2022/09/17 02:14:52;;;;;;;;;;;9.70;99.90;;;8.76;100.00;95184.28;10441345;28;2634;-71
2022/09/17 02:19:55;;;;;;;;;;;9.70;99.90;;;8.74;100.00;95175.75;10443178;28;2651;-71
2022/09/17 02:24:58;;;;;;;;;;;9.80;99.90;;;8.70;100.00;95180.03;10444019;28;2644;-72
2022/09/17 02:30:00;;;;;;;;;;;9.70;99.90;;;8.71;100.00;95170.13;10448093;28;2675;-71
2022/09/17 02:35:05;;;;;;;;;;;9.60;99.90;;;8.66;100.00;95163.72;10449295;28;2616;-71
2022/09/17 02:40:08;;;;;;;;;;;9.70;99.90;;;8.58;100.00;95156.25;10447261;28;2723;-75
2022/09/17 02:45:10;;;;;;;;;;;9.60;99.90;;;8.52;100.00;95149.31;10448723;28;2701;-73
2022/09/17 02:50:15;;;;;;;;;;;9.60;99.90;;;8.44;100.00;95139.19;10444662;28;2623;-72
2022/09/17 02:55:19;;;;;;;;;;;9.40;99.90;;;8.35;100.00;95132.78;10439382;28;2615;-70
2022/09/17 03:00:21;;;;;;;;;;;9.40;99.90;;;8.32;100.00;95126.09;10443229;28;2617;-70
2022/09/17 03:05:24;;;;;;;;;;;9.30;99.90;;;8.30;100.00;95124.75;10423071;28;2635;-71
2022/09/17 03:10:32;;;;;;;;;;;9.30;99.90;;;8.26;100.00;95115.66;10435818;28;2923;-71
2022/09/17 03:15:35;;;;;;;;;;;9.20;99.90;;;8.17;100.00;95122.69;10445033;28;2651;-73
2022/09/17 03:20:38;;;;;;;;;;;10.10;99.90;;;8.05;100.00;95114.97;10439464;28;2675;-74
2022/09/17 03:25:41;;;;;;;;;;;9.10;99.90;;;7.95;100.00;95113.13;10438837;28;2636;-70
2022/09/17 03:30:44;;;;;;;;;;;9.00;99.90;;;7.93;100.00;95115.25;10438872;28;2557;-70
2022/09/17 03:35:47;;;;;;;;;;;8.90;99.90;;;7.90;100.00;95123.03;10443479;28;2611;-70
2022/09/17 03:40:53;;;;;;;;;;;;;;;7.83;100.00;95128.69;10442172;28;2628;-71
2022/09/17 03:45:55;;;;;;;;;;;9.00;99.90;;;7.73;100.00;95124.16;10441090;28;2811;-71
2022/09/17 03:50:58;;;;;;;;;;;8.90;99.90;;;7.53;100.00;95121.50;10445647;28;2552;-71
2022/09/17 03:56:01;;;;;;;;;;;8.70;99.90;;;7.28;100.00;95130.38;10443799;28;2569;-71
2022/09/17 04:01:04;;;;;;;;;;;8.60;99.90;;;7.17;100.00;95132.22;10448735;28;2589;-71
2022/09/17 04:06:07;;;;;;;;;;;8.40;99.90;;;7.16;100.00;95140.53;10444809;28;2811;-70
2022/09/17 04:11:10;;;;;;;;;;;8.40;99.90;;;7.00;100.00;95137.84;10447453;28;2739;-72
2022/09/17 04:16:14;;;;;;;;;;;8.30;99.90;;;7.04;100.00;95135.44;10449644;28;2569;-71
2022/09/17 04:21:19;;;;;;;;;;;8.30;99.90;;;6.96;100.00;95131.41;10445439;28;2608;-72
2022/09/17 04:26:22;;;;;;;;;;;8.20;99.90;;;6.96;100.00;95120.72;10451801;28;2654;-74
2022/09/17 04:31:26;;;;;;;;;;;8.20;99.90;;;7.03;100.00;95115.94;10446551;28;2582;-71
2022/09/17 04:36:28;;;;;;;;;;;8.20;99.90;;;7.08;100.00;95123.16;10450676;28;2594;-71
2022/09/17 04:41:31;;;;;;;;;;;8.30;99.90;;;7.21;100.00;95138.66;10449661;28;2666;-71
2022/09/17 04:46:34;;;;;;;;;;;8.30;99.90;;;7.22;100.00;95147.47;10449263;28;2930;-71
2022/09/17 04:51:37;;;;;;;;;;;8.30;99.90;;;7.46;100.00;95166.44;10448054;28;2585;-71
2022/09/17 04:56:40;;;;;;;;;;;8.40;99.90;;;7.47;100.00;95184.91;10448060;28;2560;-71
2022/09/17 05:01:43;;;;;;;;;;;8.60;99.90;;;7.72;100.00;95210.84;10443648;28;2629;-71
2022/09/17 05:06:51;;;;;;;;;;;8.70;99.90;;;7.90;100.00;95225.53;10446950;28;2608;-72
2022/09/17 05:11:53;;;;;;;;;;;8.80;99.90;;;8.08;100.00;95238.34;10427728;28;2642;-72
2022/09/17 05:16:57;;;;;;;;;;;9.00;99.90;;;8.20;100.00;95245.28;10445692;28;2565;-71
2022/09/17 05:21:59;;;;;;;;;;;9.10;99.90;;;8.21;100.00;95250.38;10445583;28;2714;-70
2022/09/17 05:27:02;;;;;;;;;;;9.20;99.90;;;8.24;100.00;95260.53;10443379;28;2620;-71
2022/09/17 05:32:05;;;;;;;;;;;9.20;99.90;;;8.25;100.00;95269.38;10448455;28;2624;-72
2022/09/17 05:37:08;;;;;;;;;;;9.30;99.90;;;8.17;100.00;95292.13;10447536;28;2576;-70
2022/09/17 05:42:11;;;;;;;;;;;9.20;99.90;;;8.22;100.00;95288.66;10445594;28;2657;-73
2022/09/17 05:47:14;;;;;;;;;;;9.30;99.90;;;8.22;100.00;95291.34;10450276;28;2581;-71
2022/09/17 05:52:16;;;;;;;;;;;9.30;99.90;;;8.11;100.00;95293.22;10452379;28;2575;-70
2022/09/17 05:57:20;;;;;;;;;;;9.30;99.90;;;8.09;100.00;95292.69;10447957;28;2620;-73
2022/09/17 06:02:23;;;;;;;;;;;9.30;99.90;;;8.04;100.00;95290.81;10440552;28;2623;-70
2022/09/17 06:07:26;;;;;;;;;;;9.10;99.90;;;8.13;100.00;95291.06;10440281;28;2634;-70
2022/09/17 06:12:34;;;;;;;;;;;9.10;99.90;;;8.22;100.00;95286.78;10442785;28;2589;-71
2022/09/17 06:17:37;;;;;;;;;;;9.20;99.90;;;8.32;100.00;95281.41;10441845;28;2608;-76
2022/09/17 06:22:40;;;;;;;;;;;9.30;99.90;;;8.45;100.00;95280.06;10442387;28;3166;-72
2022/09/17 06:27:43;;;;;;;;;;;9.40;99.90;;;8.58;100.00;95274.13;10441633;28;2573;-75
2022/09/17 06:32:46;;;;;;;;;;;9.70;99.90;;;8.32;100.00;95285.94;10435192;28;2577;-70
2022/09/17 06:37:49;;;;;;;;;;;9.40;99.90;;;8.34;100.00;95284.63;10438616;28;2649;-70
2022/09/17 06:42:51;;;;;;;;;;;9.40;99.90;;;8.38;100.00;95277.66;10443731;28;2596;-70
2022/09/17 06:47:55;;;;;;;;;;;9.40;99.90;;;8.44;100.00;95278.47;10441627;28;2636;-75
2022/09/17 06:52:58;;;;;;;;;;;9.40;99.90;;;8.64;100.00;95278.41;10439867;28;2882;-71
2022/09/17 06:58:00;;;;;;;;;;;9.60;99.90;;;8.70;100.00;95281.88;10436190;28;2930;-70
2022/09/17 07:03:03;;;;;;;;;;;9.60;99.90;;;8.61;100.00;95294.22;10432401;28;2914;-72
2022/09/17 07:08:06;;;;;;;;;;;9.60;99.90;;;8.56;100.00;95268.25;10436928;28;2870;-70
2022/09/17 07:13:09;;;;;;;;;;;9.60;99.90;;;8.72;100.00;95268.22;10434387;28;2913;-70
2022/09/17 07:18:11;;;;;;;;;;;9.60;99.90;;;8.90;100.00;95267.56;10430423;28;2986;-69
2022/09/17 07:23:14;;;;;;;;;;;9.80;99.90;;;8.83;100.00;95265.19;10432541;28;2879;-70
2022/09/17 07:28:17;;;;;;;;;;;9.80;99.90;;;9.37;100.00;95264.38;10438747;28;2987;-70
2022/09/17 07:33:22;;;;;;;;;;;10.10;99.90;;;9.21;100.00;95260.19;10395538;28;1111527;-71
2022/09/17 07:38:24;;;;;;;;;;;10.20;99.90;;;9.19;100.00;95257.78;10437209;28;2867;-70
2022/09/17 07:43:27;;;;;;;;;;;10.20;99.90;;;9.59;100.00;95263.16;10430417;28;2983;-71
2022/09/17 07:48:30;;;;;;;;;;;10.40;99.90;;;9.80;100.00;95251.22;10435456;28;2990;-74
2022/09/17 07:53:33;;;;;;;;;;;10.70;99.90;;;9.81;100.00;95244.75;10441935;28;2859;-78
2022/09/17 07:58:36;;;;;;;;;;;10.70;99.90;;;9.76;100.00;95252.84;10439830;28;2953;-70
2022/09/17 08:03:39;;;;;;;;;;;10.70;99.90;;;10.03;100.00;95255.03;10441165;28;2981;-70
2022/09/17 08:08:42;;;;;;;;;;;10.80;99.90;;;9.88;100.00;95255.97;10440036;28;3042;-70
2022/09/17 08:13:44;;;;;;;;;;;10.90;99.90;;;9.95;100.00;95259.13;10442891;28;2871;-72
2022/09/17 08:18:47;;;;;;;;;;;10.90;99.90;;;10.61;100.00;95257.69;10440781;28;2946;-76
2022/09/17 08:23:50;;;;;;;;;;;11.20;99.90;;;10.45;100.00;95261.66;10437084;28;2971;-75
2022/09/17 08:28:53;;;;;;;;;;;11.40;99.90;;;10.19;100.00;95269.94;10428721;28;2879;-70
2022/09/17 08:33:56;;;;;;;;;;;11.30;99.90;;;10.37;100.00;95275.69;10439989;28;2855;-69
2022/09/17 08:38:59;;;;;;;;;;;11.20;99.90;;;10.21;100.00;95283.88;10443858;28;2942;-70
2022/09/17 08:44:02;;;;;;;;;;;11.20;99.90;;;10.23;100.00;95292.47;10440655;28;2910;-71
2022/09/17 08:49:05;;;;;;;;;;;11.20;99.90;;;10.31;100.00;95295.63;10453147;28;2910;-69
2022/09/17 08:54:08;;;;;;;;;;;11.20;99.90;;;9.92;100.00;95286.53;10446049;28;2870;-70
2022/09/17 08:59:11;;;;;;;;;;;11.00;99.90;;;9.86;100.00;95305.63;10440917;28;2926;-69
2022/09/17 09:04:14;;;;;;;;;;;10.80;99.90;;;9.98;100.00;95312.25;10439041;28;2961;-70
2022/09/17 09:09:17;;;;;;;;;;;10.90;99.90;;;10.14;100.00;95315.63;10444635;28;3000;-71
2022/09/17 09:14:20;;;;;;;;;;;11.00;99.90;;;10.54;100.00;95317.16;10445074;28;2899;-68
2022/09/17 09:19:23;;;;;;;;;;;11.20;99.90;;;10.23;99.21;95313.16;10440503;28;2946;-70
2022/09/17 09:24:27;;;;;;;;;;;11.30;99.90;;;10.25;98.65;95309.13;10443452;28;3192;-70
2022/09/17 09:29:30;;;;;;;;;;;11.10;99.90;;;10.48;97.88;95309.44;10446647;28;2907;-70
2022/09/17 09:34:32;;;;;;;;;;;11.30;99.90;;;9.94;100.00;95326.53;10448308;28;2914;-70
2022/09/17 09:39:38;;;;;;;;;;;11.20;99.90;;;9.53;100.00;95332.16;10446584;28;2854;-70
2022/09/17 09:44:47;;;;;;;;;;;10.70;99.90;;;9.78;100.00;95336.56;10444665;28;2862;-70
2022/09/17 09:49:52;;;;;;;;;;;10.70;99.90;;;9.68;100.00;95333.97;10442035;28;2916;-71
2022/09/17 09:54:55;;;;;;;;;;;10.70;99.90;;;10.02;100.00;95331.28;10437171;28;2848;-69
2022/09/17 09:59:57;;;;;;;;;;;10.80;99.90;;;9.96;100.00;95337.78;10439540;28;2949;-71
2022/09/17 10:05:00;;;;;;;;;;;10.90;99.90;;;9.42;100.00;95352.88;10441858;28;2886;-71
2022/09/17 10:10:03;;;;;;;;;;;10.60;99.90;;;8.60;100.00;95357.72;10454294;28;3010;-73
2022/09/17 10:15:06;;;;;;;;;;;10.00;99.90;;;8.39;100.00;95366.84;10443753;28;2930;-71
2022/09/17 10:20:10;;;;;;;;;;;9.60;99.90;;;8.65;100.00;95375.66;10442309;28;2938;-72
2022/09/17 10:25:14;;;;;;;;;;;9.60;99.90;;;8.52;100.00;95368.97;10438797;28;2971;-72
2022/09/17 10:30:16;;;;;;;;;;;9.50;99.90;;;8.61;100.00;95374.59;10437376;28;2917;-73
2022/09/17 10:35:19;;;;;;;;;;;9.50;99.90;;;9.09;100.00;95367.75;10435160;28;2858;-73
2022/09/17 10:40:22;;;;;;;;;;;9.60;99.90;;;9.49;100.00;95368.69;10433673;28;3243;-72
2022/09/17 10:45:25;;;;;;;;;;;10.10;99.90;;;9.41;100.00;95353.16;10437811;28;3025;-72
2022/09/17 10:50:28;;;;;;;;;;;10.30;99.90;;;9.21;100.00;95349.47;10438757;28;2918;-74
2022/09/17 10:55:39;;;;;;;;;;;10.10;99.90;;;9.19;100.00;95354.31;10435920;28;3093;-73
2022/09/17 11:00:42;;;;;;;;;;;10.10;99.90;;;9.39;100.00;95352.63;10420140;28;2863;-73
2022/09/17 11:05:45;;;;;;;;;;;10.20;99.90;;;9.59;100.00;95355.19;10438893;28;2863;-73
2022/09/17 11:10:48;;;;;;;;;;;10.30;99.90;;;9.93;100.00;95347.22;10440437;28;2922;-77
2022/09/17 11:15:51;;;;;;;;;;;10.50;99.90;;;10.46;100.00;95343.84;10422550;28;2882;-76
2022/09/17 11:20:54;;;;;;;;;;;10.90;99.90;;;10.31;100.00;95328.69;10435376;28;2909;-73
2022/09/17 11:25:58;;;;;;;;;;;11.20;99.90;;;10.24;100.00;95331.69;10429067;28;2909;-73
2022/09/17 11:31:03;;;;;;;;;;;11.10;99.90;;;9.61;100.00;95347.69;10417520;28;2913;-74
2022/09/17 11:36:06;;;;;;;;;;;10.90;99.90;;;8.08;100.00;95355.34;10437762;28;3090;-71
2022/09/17 11:41:08;;;;;;;;;;;9.80;99.90;;;7.66;100.00;95358.22;10437213;28;3001;-72
2022/09/17 11:46:11;;;;;;;;;;;8.90;99.90;;;8.45;100.00;95349.69;10439173;28;2898;-73
2022/09/17 11:51:14;;;;;;;;;;;9.00;99.90;;;8.91;100.00;95353.09;10438509;28;2902;-77
2022/09/17 11:56:17;;;;;;;;;;;9.60;99.90;;;9.70;100.00;95332.59;10441520;28;2905;-72
2022/09/17 12:01:20;;;;;;;;;;;10.10;99.90;;;10.10;100.00;95329.88;10435644;28;2922;-75
2022/09/17 12:06:23;;;;;;;;;;;10.70;99.90;;;10.26;100.00;95323.34;10440989;28;3025;-72
2022/09/17 12:11:30;;;;;;;;;;;10.90;99.90;;;10.00;100.00;95322.72;10435815;28;3017;-72
2022/09/17 12:16:33;;;;;;;;;;;10.90;99.90;;;9.19;100.00;95332.88;10438592;28;3082;-72
2022/09/17 12:21:36;;;;;;;;;;;10.50;99.90;;;8.74;100.00;95314.28;10452378;28;2855;-72
2022/09/17 12:26:39;;;;;;;;;;;9.90;99.90;;;9.45;100.00;95305.91;10447054;28;2937;-71
2022/09/17 12:31:41;;;;;;;;;;;10.00;99.90;;;9.94;100.00;95300.47;10444688;28;2946;-72
2022/09/17 12:36:47;;;;;;;;;;;10.50;99.90;;;10.08;100.00;95295.25;10447512;28;2867;-71
2022/09/17 12:41:50;;;;;;;;;;;10.70;99.90;;;10.18;100.00;95302.41;10447185;28;2942;-71
2022/09/17 12:46:53;;;;;;;;;;;10.80;99.90;;;10.15;100.00;95306.47;10445499;28;2946;-73
2022/09/17 12:51:56;;;;;;;;;;;10.90;99.90;;;10.15;100.00;95311.84;10444493;28;2921;-72
2022/09/17 12:56:58;;;;;;;;;;;10.90;99.90;;;10.69;100.00;95299.28;10443385;28;2910;-71
2022/09/17 13:02:01;;;;;;;;;;;11.20;99.90;;;10.44;100.00;95292.28;10440691;28;2898;-73
2022/09/17 13:07:04;;;;;;;;;;;11.20;99.90;;;10.32;100.00;95294.56;10448166;28;2840;-71
2022/09/17 13:12:07;;;;;;;;;;;11.20;99.90;;;9.72;100.00;95292.84;10437116;28;2922;-69
2022/09/17 13:17:10;;;;;;;;;;;11.00;99.90;;;9.25;100.00;95292.63;10438396;28;2946;-72
2022/09/17 13:22:13;;;;;;;;;;;10.50;99.90;;;9.34;100.00;95278.34;10438870;28;2882;-72
2022/09/17 13:27:15;;;;;;;;;;;10.40;99.90;;;9.73;100.00;95270.31;10444707;28;2907;-72
2022/09/17 13:32:18;;;;;;;;;;;10.60;99.90;;;9.69;100.00;95255.84;10424088;28;2959;-70
2022/09/17 13:37:22;;;;;;;;;;;10.70;99.90;;;9.59;100.00;95269.31;10448420;28;3022;-72
2022/09/17 13:42:26;;;;;;;;;;;10.60;99.90;;;9.67;100.00;95282.16;10443267;28;2918;-71
2022/09/17 13:47:29;;;;;;;;;;;10.70;99.90;;;9.79;100.00;95289.84;10442870;28;2911;-71
2022/09/17 13:52:32;;;;;;;;;;;10.70;99.90;;;10.35;100.00;95286.72;10441183;28;3232;-70
2022/09/17 13:57:35;;;;;;;;;;;11.00;99.90;;;10.96;100.00;95287.94;10443183;28;2910;-74
2022/09/17 14:02:38;;;;;;;;;;;11.40;99.90;;;11.49;100.00;95277.81;10443845;28;2902;-72
2022/09/17 14:07:41;;;;;;;;;;;11.90;99.90;;;11.41;100.00;95283.06;10438860;28;2867;-72
2022/09/17 14:12:46;;;;;;;;;;;12.20;99.90;;;11.11;100.00;95274.31;10441659;28;3219;-71
2022/09/17 14:17:50;;;;;;;;;;;12.20;99.90;;;10.83;100.00;95279.50;10440166;28;2855;-72
2022/09/17 14:22:53;;;;;;;;;;;11.90;99.90;;;10.94;100.00;95276.66;10438737;28;2838;-71
2022/09/17 14:27:56;;;;;;;;;;;11.90;99.90;;;11.28;100.00;95279.22;10435734;28;3090;-71
2022/09/17 14:32:59;;;;;;;;;;;12.10;99.90;;;11.21;100.00;95279.56;10439498;28;2843;-72
2022/09/17 14:38:02;;;;;;;;;;;12.20;99.90;;;11.11;100.00;95277.00;10442467;28;2951;-74
2022/09/17 14:43:05;;;;;;;;;;;12.10;99.90;;;10.79;100.00;95273.06;10442094;28;2914;-71
2022/09/17 14:48:08;;;;;;;;;;;11.90;99.90;;;10.54;100.00;95281.41;10441422;28;2922;-71
2022/09/17 14:53:10;;;;;;;;;;;11.60;99.90;;;10.69;100.00;95275.91;10441389;28;2871;-72
2022/09/17 14:58:13;;;;;;;;;;;11.60;99.90;;;10.87;100.00;95278.91;10430616;28;2923;-73
2022/09/17 15:03:16;;;;;;;;;;;11.60;99.90;;;10.94;100.00;95279.34;10441086;28;2898;-72
2022/09/17 15:08:20;;;;;;;;;;;11.80;99.90;;;10.94;100.00;95296.31;10437806;28;2990;-71
2022/09/17 15:13:22;;;;;;;;;;;11.80;99.90;;;10.80;100.00;95300.75;10436432;28;2917;-70
2022/09/17 15:18:25;;;;;;;;;;;11.80;99.90;;;10.57;100.00;95315.00;10446652;28;2986;-72
2022/09/17 15:23:31;;;;;;;;;;;11.60;99.90;;;10.23;100.00;95308.56;10442204;28;2894;-74
2022/09/17 15:28:34;;;;;;;;;;;11.30;99.90;;;10.08;100.00;95326.69;10441447;28;3220;-75
2022/09/17 15:33:37;;;;;;;;;;;11.10;99.90;;;9.73;100.00;95323.16;10440297;28;2935;-75
2022/09/17 15:38:41;;;;;;;;;;;10.80;99.90;;;9.70;100.00;95329.91;10439371;28;3000;-75
2022/09/17 15:43:44;;;;;;;;;;;10.70;99.90;;;9.60;100.00;95343.38;10441969;28;2901;-71
2022/09/17 15:48:47;;;;;;;;;;;10.70;99.90;;;9.54;100.00;95344.47;10436545;28;3310;-71
2022/09/17 15:53:50;;;;;;;;;;;10.60;99.90;;;9.42;100.00;95338.69;10439711;28;2906;-69
2022/09/17 15:58:53;;;;;;;;;;;9.40;99.90;;;9.46;100.00;95342.41;10454498;28;2894;-71
2022/09/17 16:03:56;;;;;;;;;;;10.50;99.90;;;9.49;100.00;95349.91;10455451;28;2882;-70
2022/09/17 16:08:59;;;;;;;;;;;10.50;99.90;;;9.35;100.00;95335.47;10441583;28;3251;-70
2022/09/17 16:14:02;;;;;;;;;;;10.40;99.90;;;9.34;100.00;95344.59;10447900;28;2855;-70
2022/09/17 16:19:05;;;;;;;;;;;10.30;99.90;;;9.35;100.00;95351.56;10442353;28;3068;-73
2022/09/17 16:24:08;;;;;;;;;;;10.40;99.90;;;9.25;100.00;95355.13;10442645;28;2918;-75
2022/09/17 16:29:11;;;;;;;;;;;10.30;99.90;;;9.16;100.00;95348.69;10443772;28;2840;-72
2022/09/17 16:34:14;;;;;;;;;;;10.20;99.90;;;9.21;100.00;95352.16;10442555;28;2914;-71
2022/09/17 16:39:17;;;;;;;;;;;10.20;99.90;;;9.05;100.00;95350.63;10448719;28;2938;-70
2022/09/17 16:44:20;;;;;;;;;;;10.10;99.90;;;8.94;100.00;95363.25;10441610;28;2906;-71
2022/09/17 16:49:23;;;;;;;;;;;10.10;99.90;;;8.68;100.00;95363.59;10437055;28;2957;-70
2022/09/17 16:54:26;;;;;;;;;;;9.90;99.90;;;8.63;100.00;95378.59;10443254;28;2844;-71
2022/09/17 16:59:28;;;;;;;;;;;9.80;99.90;;;8.53;100.00;95377.84;10448038;28;2918;-71
2022/09/17 17:04:31;;;;;;;;;;;9.70;99.90;;;8.34;100.00;95383.72;10440788;28;2863;-73
2022/09/17 17:09:34;;;;;;;;;;;9.60;99.90;;;8.12;100.00;95394.69;10446490;28;2850;-72
2022/09/17 17:14:37;;;;;;;;;;;9.40;99.90;;;8.02;100.00;95389.34;10444063;28;2863;-73
2022/09/17 17:19:40;;;;;;;;;;;9.30;99.90;;;7.82;100.00;95397.31;10444126;28;2892;-72
2022/09/17 17:24:42;;;;;;;;;;;9.10;99.90;;;7.72;100.00;95397.31;10442566;28;2931;-73
2022/09/17 17:29:48;;;;;;;;;;;9.00;99.90;;;7.63;100.00;95404.22;10446545;28;3038;-72
2022/09/17 17:34:51;;;;;;;;;;;8.90;99.90;;;7.58;100.00;95411.19;10444221;28;2898;-70
2022/09/17 17:39:55;;;;;;;;;;;8.80;99.90;;;7.57;100.00;95406.06;10443007;28;2763;-70
2022/09/17 17:45:00;;;;;;;;;;;8.90;99.90;;;7.50;100.00;95409.00;10445559;28;2935;-70
2022/09/17 17:50:03;;;;;;;;;;;8.70;99.90;;;7.51;100.00;95420.53;10446065;28;2938;-72
2022/09/17 17:55:06;;;;;;;;;;;8.70;99.90;;;7.43;100.00;95424.50;10449484;28;2877;-72
2022/09/17 18:00:09;;;;;;;;;;;8.70;99.90;;;7.53;100.00;95429.88;10447967;28;2862;-75
2022/09/17 18:05:12;;;;;;;;;;;8.60;99.90;;;7.48;100.00;95442.44;10447344;28;2871;-76
2022/09/17 18:10:15;;;;;;;;;;;8.60;99.90;;;7.51;100.00;95452.63;10445585;28;2881;-75
2022/09/17 18:15:17;;;;;;;;;;;8.60;99.90;;;7.58;100.00;95470.03;10450364;28;2847;-73
2022/09/17 18:20:21;;;;;;;;;;;8.70;99.90;;;7.81;100.00;95467.94;10441346;28;2894;-72
2022/09/17 18:25:24;;;;;;;;;;;8.80;99.90;;;7.91;100.00;95481.38;10445313;28;2910;-72
2022/09/17 18:30:27;;;;;;;;;;;8.90;99.90;;;8.06;100.00;95485.94;10442086;28;2923;-72
2022/09/17 18:35:30;;;;;;;;;;;9.00;99.90;;;8.12;100.00;95491.06;10438606;28;3377;-75
2022/09/17 18:40:33;;;;;;;;;;;9.20;99.90;;;8.04;100.00;95496.94;10440759;28;2950;-73
2022/09/17 18:45:38;;;;;;;;;;;9.10;99.90;;;8.03;100.00;95497.19;10441474;28;2909;-72
2022/09/17 18:50:41;;;;;;;;;;;9.10;99.90;;;7.99;100.00;95494.22;10440178;28;2885;-73
2022/09/17 18:55:44;;;;;;;;;;;9.10;99.90;;;7.85;100.00;95499.28;10442959;28;2894;-73
2022/09/17 19:00:46;;;;;;;;;;;9.10;99.90;;;7.66;100.00;95511.53;10443342;28;2938;-72
2022/09/17 19:05:50;;;;;;;;;;;8.90;99.90;;;7.59;100.00;95511.75;10444290;28;2949;-77
2022/09/17 19:10:52;;;;;;;;;;;8.80;99.90;;;7.58;100.00;95507.47;10440630;28;2969;-79
2022/09/17 19:15:55;;;;;;;;;;;8.80;99.90;;;7.66;100.00;95516.06;10443508;28;3066;-76
2022/09/17 19:20:58;;;;;;;;;;;8.70;99.90;;;7.66;100.00;95508.03;10443785;28;3228;-73
2022/09/17 19:26:01;;;;;;;;;;;8.70;99.90;;;7.71;100.00;95506.19;10439481;28;2857;-73
2022/09/17 19:31:04;;;;;;;;;;;8.80;99.90;;;7.79;100.00;95499.53;10435859;28;2953;-73
2022/09/17 19:36:10;;;;;;;;;;;8.80;99.90;;;7.81;100.00;95494.72;10431583;28;2926;-73
2022/09/17 19:41:13;;;;;;;;;;;8.90;99.90;;;7.85;100.00;95496.59;10438684;28;3201;-74
2022/09/17 19:46:16;;;;;;;;;;;8.90;99.90;;;7.90;100.00;95497.69;10435289;28;2930;-72
2022/09/17 19:51:19;;;;;;;;;;;8.90;99.90;;;7.97;100.00;95499.06;10428954;28;2915;-73
2022/09/17 19:56:22;;;;;;;;;;;9.00;99.90;;;8.01;100.00;95492.09;10435421;28;2902;-73
2022/09/17 20:01:25;;;;;;;;;;;9.00;99.90;;;8.01;100.00;95489.41;10438986;28;2875;-73
2022/09/17 20:06:27;;;;;;;;;;;9.10;99.90;;;7.98;100.00;95484.59;10430514;28;2975;-73
2022/09/17 20:11:30;;;;;;;;;;;9.00;99.90;;;8.02;100.00;95483.03;10433152;28;2918;-72
2022/09/17 20:16:33;;;;;;;;;;;9.20;99.90;;;8.07;100.00;95488.34;10430896;28;2925;-73
2022/09/17 20:21:36;;;;;;;;;;;9.20;99.90;;;8.10;100.00;95466.44;10441963;28;2912;-71
2022/09/17 20:26:39;;;;;;;;;;;9.20;99.90;;;7.93;100.00;95497.97;10431813;28;2892;-73
2022/09/17 20:31:42;;;;;;;;;;;9.10;99.90;;;7.50;100.00;95497.25;10431174;28;2886;-71
2022/09/17 20:36:45;;;;;;;;;;;8.70;99.90;;;7.40;100.00;95486.53;10433647;28;3030;-72
2022/09/17 20:41:48;;;;;;;;;;;8.50;99.90;;;7.30;100.00;95497.16;10444388;28;3043;-71
2022/09/17 20:46:53;;;;;;;;;;;8.40;99.90;;;7.21;100.00;95496.84;10445819;28;3008;-72
2022/09/17 20:51:59;;;;;;;;;;;8.30;99.90;;;7.21;100.00;95506.75;10448978;28;2956;-71
2022/09/17 20:57:01;;;;;;;;;;;8.20;99.90;;;7.23;100.00;95512.63;10439436;28;2907;-70
2022/09/17 21:02:04;;;;;;;;;;;8.30;99.90;;;7.25;100.00;95519.34;10445804;28;2848;-71
2022/09/17 21:07:07;;;;;;;;;;;8.20;99.90;;;7.23;100.00;95524.13;10451184;28;2917;-71
2022/09/17 21:12:10;;;;;;;;;;;8.30;99.90;;;7.18;100.00;95533.97;10443568;28;2895;-71
2022/09/17 21:17:13;;;;;;;;;;;8.20;99.90;;;7.08;100.00;95533.94;10440399;28;2978;-71
2022/09/17 21:22:15;;;;;;;;;;;8.10;99.90;;;6.94;100.00;95538.91;10443611;28;2855;-72
2022/09/17 21:27:18;;;;;;;;;;;8.00;99.90;;;6.83;100.00;95539.91;10441598;28;3060;-73
2022/09/17 21:32:21;;;;;;;;;;;7.90;99.90;;;6.77;100.00;95539.03;10435089;28;2953;-76
2022/09/17 21:37:25;;;;;;;;;;;7.80;99.90;;;6.74;100.00;95544.88;10443380;28;3120;-73
2022/09/17 21:42:29;;;;;;;;;;;7.70;99.90;;;6.65;100.00;95536.53;10446295;28;2886;-72
2022/09/17 21:47:32;;;;;;;;;;;7.70;99.90;;;6.56;100.00;95537.28;10443725;28;2858;-71
2022/09/17 21:52:35;;;;;;;;;;;7.60;99.90;;;6.45;100.00;95526.50;10436217;28;2917;-72
2022/09/17 21:57:37;;;;;;;;;;;7.50;99.90;;;6.37;100.00;95524.28;10442268;28;2961;-72
2022/09/17 22:02:40;;;;;;;;;;;7.40;99.90;;;6.30;100.00;95529.03;10433459;28;2888;-71
2022/09/17 22:07:43;;;;;;;;;;;7.30;99.90;;;6.24;100.00;95540.72;10435390;28;2871;-71
2022/09/17 22:12:46;;;;;;;;;;;7.50;99.90;;;6.21;100.00;95538.53;10431015;28;2840;-71
2022/09/17 22:17:49;;;;;;;;;;;7.20;99.90;;;6.08;100.00;95536.25;10433200;28;3339;-70
2022/09/17 22:22:52;;;;;;;;;;;;;;;5.91;100.00;95534.47;10439807;28;2875;-71
2022/09/17 22:27:55;;;;;;;;;;;7.10;99.90;;;5.87;100.00;95545.88;10439510;28;2997;-71
2022/09/17 22:33:18;;;;;;;;;;;7.00;99.90;;;5.73;100.00;95536.66;10425436;28;3041;-70
2022/09/17 22:38:20;;;;;;;;;;;7.00;99.90;;;5.75;100.00;95543.34;10429726;28;2910;-70
2022/09/17 22:43:26;;;;;;;;;;;;;;;5.69;100.00;95541.66;10432636;28;2957;-72
2022/09/17 22:48:29;;;;;;;;;;;;;;;5.65;100.00;95540.53;10443953;28;2922;-72
2022/09/17 22:53:32;;;;;;;;;;;;;;;5.61;100.00;95542.09;10440087;28;2938;-72
2022/09/17 22:58:36;;;;;;;;;;;;;;;5.54;100.00;95547.63;10437654;28;2989;-70
2022/09/17 23:03:39;;;;;;;;;;;;;;;5.59;100.00;95562.84;10437618;28;2879;-70
2022/09/17 23:08:42;;;;;;;;;;;;;;;5.55;100.00;95548.41;10442453;28;2910;-71
2022/09/17 23:13:46;;;;;;;;;;;;;;;5.70;100.00;95557.41;10430002;28;3224;-73
2022/09/17 23:18:49;;;;;;;;;;;;;;;5.76;100.00;95563.63;10433125;28;2930;-73
2022/09/17 23:23:52;;;;;;;;;;;;;;;5.76;100.00;95574.28;10442457;28;2886;-73
2022/09/17 23:28:56;;;;;;;;;;;;;;;5.76;100.00;95573.47;10438366;28;2962;-71